sensor_id;sensor_type;location;lat;lon;timestamp;P1;durP1;ratioP1;P2;durP2;ratioP2
819;SDS011;392;48.838;2.322;2022-10-16T00:01:16;2.50;;;2.30;;
819;SDS011;392;48.838;2.322;2022-10-16T00:03:47;2.70;;;2.50;;
819;SDS011;392;48.838;2.322;2022-10-16T00:06:16;2.60;;;2.40;;
819;SDS011;392;48.838;2.322;2022-10-16T00:08:45;2.67;;;2.47;;
819;SDS011;392;48.838;2.322;2022-10-16T00:11:13;2.57;;;2.37;;
819;SDS011;392;48.838;2.322;2022-10-16T00:13:45;2.40;;;2.00;;
819;SDS011;392;48.838;2.322;2022-10-16T00:16:14;2.30;;;2.10;;
819;SDS011;392;48.838;2.322;2022-10-16T00:18:43;2.40;;;2.20;;
819;SDS011;392;48.838;2.322;2022-10-16T00:21:11;2.30;;;2.20;;
819;SDS011;392;48.838;2.322;2022-10-16T00:23:59;2.63;;;2.53;;
819;SDS011;392;48.838;2.322;2022-10-16T00:26:30;2.80;;;2.00;;
819;SDS011;392;48.838;2.322;2022-10-16T00:29:01;2.73;;;2.53;;
819;SDS011;392;48.838;2.322;2022-10-16T00:31:29;2.23;;;2.13;;
819;SDS011;392;48.838;2.322;2022-10-16T00:33:56;3.37;;;2.40;;
819;SDS011;392;48.838;2.322;2022-10-16T00:36:24;2.40;;;2.20;;
819;SDS011;392;48.838;2.322;2022-10-16T00:38:52;2.40;;;2.20;;
819;SDS011;392;48.838;2.322;2022-10-16T00:41:25;2.87;;;2.60;;
819;SDS011;392;48.838;2.322;2022-10-16T00:43:53;2.17;;;2.07;;
819;SDS011;392;48.838;2.322;2022-10-16T00:46:24;2.40;;;2.30;;
819;SDS011;392;48.838;2.322;2022-10-16T00:48:57;3.00;;;2.20;;
819;SDS011;392;48.838;2.322;2022-10-16T00:51:30;2.40;;;2.20;;
819;SDS011;392;48.838;2.322;2022-10-16T00:54:00;2.80;;;2.60;;
819;SDS011;392;48.838;2.322;2022-10-16T00:56:31;3.00;;;2.80;;
819;SDS011;392;48.838;2.322;2022-10-16T00:58:59;2.50;;;2.30;;
819;SDS011;392;48.838;2.322;2022-10-16T01:01:31;2.90;;;2.60;;
819;SDS011;392;48.838;2.322;2022-10-16T01:03:59;2.73;;;2.60;;
819;SDS011;392;48.838;2.322;2022-10-16T01:06:28;2.50;;;2.30;;
819;SDS011;392;48.838;2.322;2022-10-16T01:09:07;3.17;;;2.97;;
819;SDS011;392;48.838;2.322;2022-10-16T01:11:44;2.97;;;2.77;;
819;SDS011;392;48.838;2.322;2022-10-16T01:14:21;2.50;;;2.30;;
819;SDS011;392;48.838;2.322;2022-10-16T01:16:57;2.93;;;2.73;;
819;SDS011;392;48.838;2.322;2022-10-16T01:19:36;2.50;;;2.40;;
819;SDS011;392;48.838;2.322;2022-10-16T01:22:28;3.30;;;2.30;;
819;SDS011;392;48.838;2.322;2022-10-16T01:25:04;2.73;;;2.53;;
819;SDS011;392;48.838;2.322;2022-10-16T01:27:40;2.33;;;2.20;;
819;SDS011;392;48.838;2.322;2022-10-16T01:30:13;2.27;;;2.00;;
819;SDS011;392;48.838;2.322;2022-10-16T01:32:49;2.57;;;2.37;;
819;SDS011;392;48.838;2.322;2022-10-16T01:35:23;3.20;;;2.90;;
819;SDS011;392;48.838;2.322;2022-10-16T01:37:55;2.10;;;2.00;;
819;SDS011;392;48.838;2.322;2022-10-16T01:40:29;2.20;;;2.10;;
819;SDS011;392;48.838;2.322;2022-10-16T01:43:02;2.87;;;1.90;;
819;SDS011;392;48.838;2.322;2022-10-16T01:45:31;2.00;;;1.90;;
819;SDS011;392;48.838;2.322;2022-10-16T01:48:01;2.13;;;2.03;;
819;SDS011;392;48.838;2.322;2022-10-16T01:50:33;2.00;;;1.90;;
819;SDS011;392;48.838;2.322;2022-10-16T01:53:05;2.23;;;2.13;;
819;SDS011;392;48.838;2.322;2022-10-16T01:55:37;2.47;;;2.27;;
819;SDS011;392;48.838;2.322;2022-10-16T01:58:11;2.00;;;1.90;;
819;SDS011;392;48.838;2.322;2022-10-16T02:00:41;3.07;;;2.27;;
819;SDS011;392;48.838;2.322;2022-10-16T02:03:12;1.87;;;1.77;;
819;SDS011;392;48.838;2.322;2022-10-16T02:05:45;2.40;;;2.00;;
819;SDS011;392;48.838;2.322;2022-10-16T02:08:16;2.30;;;2.13;;
819;SDS011;392;48.838;2.322;2022-10-16T02:10:43;2.43;;;2.23;;
819;SDS011;392;48.838;2.322;2022-10-16T02:13:13;2.90;;;2.70;;
819;SDS011;392;48.838;2.322;2022-10-16T02:15:44;2.10;;;1.90;;
819;SDS011;392;48.838;2.322;2022-10-16T02:18:11;2.40;;;2.30;;
819;SDS011;392;48.838;2.322;2022-10-16T02:20:41;3.47;;;2.07;;
819;SDS011;392;48.838;2.322;2022-10-16T02:23:19;2.03;;;1.93;;
819;SDS011;392;48.838;2.322;2022-10-16T02:25:56;2.30;;;2.07;;
819;SDS011;392;48.838;2.322;2022-10-16T02:28:28;1.90;;;1.80;;
819;SDS011;392;48.838;2.322;2022-10-16T02:31:03;1.40;;;1.30;;
819;SDS011;392;48.838;2.322;2022-10-16T02:33:34;1.80;;;1.70;;
819;SDS011;392;48.838;2.322;2022-10-16T02:36:03;1.70;;;1.60;;
819;SDS011;392;48.838;2.322;2022-10-16T02:38:31;1.83;;;1.70;;
819;SDS011;392;48.838;2.322;2022-10-16T02:40:59;1.70;;;1.60;;
819;SDS011;392;48.838;2.322;2022-10-16T02:43:28;1.90;;;1.80;;
819;SDS011;392;48.838;2.322;2022-10-16T02:45:55;1.93;;;1.40;;
819;SDS011;392;48.838;2.322;2022-10-16T02:48:23;1.70;;;1.60;;
819;SDS011;392;48.838;2.322;2022-10-16T02:50:50;2.47;;;1.43;;
819;SDS011;392;48.838;2.322;2022-10-16T02:53:17;1.70;;;1.60;;
819;SDS011;392;48.838;2.322;2022-10-16T02:55:45;1.60;;;1.50;;
819;SDS011;392;48.838;2.322;2022-10-16T02:58:12;1.43;;;1.40;;
819;SDS011;392;48.838;2.322;2022-10-16T03:00:40;1.53;;;1.43;;
819;SDS011;392;48.838;2.322;2022-10-16T03:03:08;1.53;;;1.43;;
819;SDS011;392;48.838;2.322;2022-10-16T03:05:35;1.77;;;1.43;;
819;SDS011;392;48.838;2.322;2022-10-16T03:08:02;1.50;;;1.40;;
819;SDS011;392;48.838;2.322;2022-10-16T03:10:31;1.43;;;1.43;;
819;SDS011;392;48.838;2.322;2022-10-16T03:12:58;2.03;;;1.37;;
819;SDS011;392;48.838;2.322;2022-10-16T03:15:25;1.73;;;1.63;;
819;SDS011;392;48.838;2.322;2022-10-16T03:17:56;2.47;;;1.20;;
819;SDS011;392;48.838;2.322;2022-10-16T03:20:24;1.30;;;1.30;;
819;SDS011;392;48.838;2.322;2022-10-16T03:22:52;1.50;;;1.40;;
819;SDS011;392;48.838;2.322;2022-10-16T03:25:19;1.50;;;1.40;;
819;SDS011;392;48.838;2.322;2022-10-16T03:27:46;1.47;;;1.23;;
819;SDS011;392;48.838;2.322;2022-10-16T03:30:14;1.47;;;1.20;;
819;SDS011;392;48.838;2.322;2022-10-16T03:32:41;1.43;;;1.30;;
819;SDS011;392;48.838;2.322;2022-10-16T03:35:11;2.17;;;1.30;;
819;SDS011;392;48.838;2.322;2022-10-16T03:37:39;1.57;;;1.47;;
819;SDS011;392;48.838;2.322;2022-10-16T03:40:06;1.10;;;1.10;;
819;SDS011;392;48.838;2.322;2022-10-16T03:42:35;1.30;;;1.20;;
819;SDS011;392;48.838;2.322;2022-10-16T03:45:02;1.10;;;1.10;;
819;SDS011;392;48.838;2.322;2022-10-16T03:47:31;1.10;;;1.10;;
819;SDS011;392;48.838;2.322;2022-10-16T03:49:58;1.57;;;1.33;;
819;SDS011;392;48.838;2.322;2022-10-16T03:52:27;1.30;;;1.20;;
819;SDS011;392;48.838;2.322;2022-10-16T03:54:54;1.67;;;1.20;;
819;SDS011;392;48.838;2.322;2022-10-16T03:57:22;1.57;;;1.47;;
819;SDS011;392;48.838;2.322;2022-10-16T03:59:50;2.10;;;1.43;;
819;SDS011;392;48.838;2.322;2022-10-16T04:02:17;2.70;;;1.30;;
819;SDS011;392;48.838;2.322;2022-10-16T04:04:45;1.17;;;1.17;;
819;SDS011;392;48.838;2.322;2022-10-16T04:07:12;1.47;;;1.30;;
819;SDS011;392;48.838;2.322;2022-10-16T04:09:40;1.33;;;1.27;;
819;SDS011;392;48.838;2.322;2022-10-16T04:12:08;1.40;;;1.30;;
819;SDS011;392;48.838;2.322;2022-10-16T04:14:35;1.73;;;1.20;;
819;SDS011;392;48.838;2.322;2022-10-16T04:17:02;2.83;;;1.10;;
819;SDS011;392;48.838;2.322;2022-10-16T04:19:30;1.27;;;1.27;;
819;SDS011;392;48.838;2.322;2022-10-16T04:21:57;1.73;;;1.27;;
819;SDS011;392;48.838;2.322;2022-10-16T04:24:24;1.30;;;1.30;;
819;SDS011;392;48.838;2.322;2022-10-16T04:26:53;0.90;;;0.90;;
819;SDS011;392;48.838;2.322;2022-10-16T04:29:20;1.40;;;1.30;;
819;SDS011;392;48.838;2.322;2022-10-16T04:31:47;1.33;;;1.33;;
819;SDS011;392;48.838;2.322;2022-10-16T04:34:15;1.27;;;1.17;;
819;SDS011;392;48.838;2.322;2022-10-16T04:36:42;1.53;;;1.23;;
819;SDS011;392;48.838;2.322;2022-10-16T04:39:09;1.43;;;1.30;;
819;SDS011;392;48.838;2.322;2022-10-16T04:41:36;1.20;;;1.07;;
819;SDS011;392;48.838;2.322;2022-10-16T04:44:05;1.20;;;1.10;;
819;SDS011;392;48.838;2.322;2022-10-16T04:46:32;1.13;;;1.13;;
819;SDS011;392;48.838;2.322;2022-10-16T04:48:59;1.23;;;1.13;;
819;SDS011;392;48.838;2.322;2022-10-16T04:51:27;3.80;;;1.27;;
819;SDS011;392;48.838;2.322;2022-10-16T04:53:54;1.27;;;1.03;;
819;SDS011;392;48.838;2.322;2022-10-16T04:56:22;1.93;;;0.80;;
819;SDS011;392;48.838;2.322;2022-10-16T04:58:49;1.00;;;0.80;;
819;SDS011;392;48.838;2.322;2022-10-16T05:01:18;1.20;;;1.10;;
819;SDS011;392;48.838;2.322;2022-10-16T05:03:45;0.97;;;0.87;;
819;SDS011;392;48.838;2.322;2022-10-16T05:06:12;0.90;;;0.90;;
819;SDS011;392;48.838;2.322;2022-10-16T05:08:39;2.10;;;1.00;;
819;SDS011;392;48.838;2.322;2022-10-16T05:11:07;0.77;;;0.77;;
819;SDS011;392;48.838;2.322;2022-10-16T05:13:34;1.00;;;1.00;;
819;SDS011;392;48.838;2.322;2022-10-16T05:16:01;1.07;;;1.00;;
819;SDS011;392;48.838;2.322;2022-10-16T05:18:30;1.80;;;1.23;;
819;SDS011;392;48.838;2.322;2022-10-16T05:20:57;1.30;;;0.90;;
819;SDS011;392;48.838;2.322;2022-10-16T05:23:24;1.37;;;1.07;;
819;SDS011;392;48.838;2.322;2022-10-16T05:25:52;1.07;;;0.97;;
819;SDS011;392;48.838;2.322;2022-10-16T05:28:21;1.83;;;1.20;;
819;SDS011;392;48.838;2.322;2022-10-16T05:30:48;0.90;;;0.90;;
819;SDS011;392;48.838;2.322;2022-10-16T05:33:15;0.90;;;0.90;;
819;SDS011;392;48.838;2.322;2022-10-16T05:35:44;1.30;;;1.10;;
819;SDS011;392;48.838;2.322;2022-10-16T05:38:12;1.43;;;1.10;;
819;SDS011;392;48.838;2.322;2022-10-16T05:40:39;1.10;;;1.00;;
819;SDS011;392;48.838;2.322;2022-10-16T05:43:06;1.17;;;1.07;;
819;SDS011;392;48.838;2.322;2022-10-16T05:45:33;1.23;;;1.13;;
819;SDS011;392;48.838;2.322;2022-10-16T05:48:01;1.00;;;1.00;;
819;SDS011;392;48.838;2.322;2022-10-16T05:50:28;1.07;;;0.87;;
819;SDS011;392;48.838;2.322;2022-10-16T05:52:57;1.00;;;1.00;;
819;SDS011;392;48.838;2.322;2022-10-16T05:55:24;1.57;;;1.20;;
819;SDS011;392;48.838;2.322;2022-10-16T05:57:53;1.20;;;1.20;;
819;SDS011;392;48.838;2.322;2022-10-16T06:00:21;1.83;;;1.20;;
819;SDS011;392;48.838;2.322;2022-10-16T06:02:48;1.93;;;1.40;;
819;SDS011;392;48.838;2.322;2022-10-16T06:05:15;1.50;;;1.40;;
819;SDS011;392;48.838;2.322;2022-10-16T06:07:42;1.50;;;1.40;;
819;SDS011;392;48.838;2.322;2022-10-16T06:10:11;1.53;;;1.43;;
819;SDS011;392;48.838;2.322;2022-10-16T06:12:38;1.60;;;1.50;;
819;SDS011;392;48.838;2.322;2022-10-16T06:15:06;1.60;;;1.50;;
819;SDS011;392;48.838;2.322;2022-10-16T06:17:34;1.50;;;1.40;;
819;SDS011;392;48.838;2.322;2022-10-16T06:20:01;1.50;;;1.40;;
819;SDS011;392;48.838;2.322;2022-10-16T06:22:29;1.00;;;1.00;;
819;SDS011;392;48.838;2.322;2022-10-16T06:24:56;3.03;;;1.50;;
819;SDS011;392;48.838;2.322;2022-10-16T06:27:24;1.40;;;1.30;;
819;SDS011;392;48.838;2.322;2022-10-16T06:29:52;3.20;;;1.50;;
819;SDS011;392;48.838;2.322;2022-10-16T06:32:19;1.50;;;1.20;;
819;SDS011;392;48.838;2.322;2022-10-16T06:34:47;1.60;;;1.50;;
819;SDS011;392;48.838;2.322;2022-10-16T06:37:14;1.70;;;1.60;;
819;SDS011;392;48.838;2.322;2022-10-16T06:39:41;1.70;;;1.60;;
819;SDS011;392;48.838;2.322;2022-10-16T06:42:08;1.70;;;1.60;;
819;SDS011;392;48.838;2.322;2022-10-16T06:44:37;1.70;;;1.60;;
819;SDS011;392;48.838;2.322;2022-10-16T06:47:04;1.80;;;1.70;;
819;SDS011;392;48.838;2.322;2022-10-16T06:49:32;1.53;;;1.43;;
819;SDS011;392;48.838;2.322;2022-10-16T06:52:00;1.77;;;1.67;;
819;SDS011;392;48.838;2.322;2022-10-16T06:54:28;2.20;;;2.00;;
819;SDS011;392;48.838;2.322;2022-10-16T06:56:55;1.57;;;1.47;;
819;SDS011;392;48.838;2.322;2022-10-16T06:59:22;1.40;;;1.30;;
819;SDS011;392;48.838;2.322;2022-10-16T07:01:51;1.47;;;1.37;;
819;SDS011;392;48.838;2.322;2022-10-16T07:04:18;1.63;;;1.53;;
819;SDS011;392;48.838;2.322;2022-10-16T07:06:45;1.90;;;1.80;;
819;SDS011;392;48.838;2.322;2022-10-16T07:09:12;2.30;;;2.10;;
819;SDS011;392;48.838;2.322;2022-10-16T07:11:40;1.97;;;1.80;;
819;SDS011;392;48.838;2.322;2022-10-16T07:14:10;2.40;;;1.77;;
819;SDS011;392;48.838;2.322;2022-10-16T07:16:41;1.97;;;1.87;;
819;SDS011;392;48.838;2.322;2022-10-16T07:19:10;1.77;;;1.67;;
819;SDS011;392;48.838;2.322;2022-10-16T07:21:40;2.00;;;1.90;;
819;SDS011;392;48.838;2.322;2022-10-16T07:24:10;2.83;;;2.00;;
819;SDS011;392;48.838;2.322;2022-10-16T07:26:39;2.10;;;2.00;;
819;SDS011;392;48.838;2.322;2022-10-16T07:29:11;2.10;;;1.73;;
819;SDS011;392;48.838;2.322;2022-10-16T07:31:40;2.63;;;2.30;;
819;SDS011;392;48.838;2.322;2022-10-16T07:34:07;2.33;;;2.23;;
819;SDS011;392;48.838;2.322;2022-10-16T07:36:37;1.90;;;1.80;;
819;SDS011;392;48.838;2.322;2022-10-16T07:39:04;2.57;;;2.40;;
819;SDS011;392;48.838;2.322;2022-10-16T07:41:32;2.67;;;2.50;;
819;SDS011;392;48.838;2.322;2022-10-16T07:44:02;2.97;;;2.77;;
819;SDS011;392;48.838;2.322;2022-10-16T07:46:30;2.80;;;2.60;;
819;SDS011;392;48.838;2.322;2022-10-16T07:48:59;2.80;;;2.60;;
819;SDS011;392;48.838;2.322;2022-10-16T07:51:27;2.07;;;1.97;;
819;SDS011;392;48.838;2.322;2022-10-16T07:53:55;2.70;;;2.50;;
819;SDS011;392;48.838;2.322;2022-10-16T07:56:22;2.80;;;2.60;;
819;SDS011;392;48.838;2.322;2022-10-16T07:58:50;2.47;;;2.30;;
819;SDS011;392;48.838;2.322;2022-10-16T08:01:18;1.80;;;1.70;;
819;SDS011;392;48.838;2.322;2022-10-16T08:03:46;3.10;;;2.50;;
819;SDS011;392;48.838;2.322;2022-10-16T08:06:14;2.30;;;2.20;;
819;SDS011;392;48.838;2.322;2022-10-16T08:08:43;2.37;;;2.27;;
819;SDS011;392;48.838;2.322;2022-10-16T08:11:10;2.57;;;2.37;;
819;SDS011;392;48.838;2.322;2022-10-16T08:13:39;2.93;;;2.73;;
819;SDS011;392;48.838;2.322;2022-10-16T08:16:06;2.33;;;2.17;;
819;SDS011;392;48.838;2.322;2022-10-16T08:18:35;2.27;;;2.17;;
819;SDS011;392;48.838;2.322;2022-10-16T08:21:02;2.13;;;2.03;;
819;SDS011;392;48.838;2.322;2022-10-16T08:23:30;2.33;;;2.23;;
819;SDS011;392;48.838;2.322;2022-10-16T08:26:03;2.37;;;2.27;;
819;SDS011;392;48.838;2.322;2022-10-16T08:28:33;2.33;;;2.23;;
819;SDS011;392;48.838;2.322;2022-10-16T08:31:05;2.33;;;2.23;;
819;SDS011;392;48.838;2.322;2022-10-16T08:33:36;2.20;;;2.10;;
819;SDS011;392;48.838;2.322;2022-10-16T08:36:04;4.57;;;2.77;;
819;SDS011;392;48.838;2.322;2022-10-16T08:38:33;2.97;;;2.77;;
819;SDS011;392;48.838;2.322;2022-10-16T08:41:08;2.63;;;2.53;;
819;SDS011;392;48.838;2.322;2022-10-16T08:44:01;3.63;;;3.43;;
819;SDS011;392;48.838;2.322;2022-10-16T08:46:47;2.40;;;2.30;;
819;SDS011;392;48.838;2.322;2022-10-16T08:49:27;2.20;;;2.10;;
819;SDS011;392;48.838;2.322;2022-10-16T08:51:56;2.97;;;2.67;;
819;SDS011;392;48.838;2.322;2022-10-16T08:54:26;2.33;;;2.23;;
819;SDS011;392;48.838;2.322;2022-10-16T08:57:06;2.20;;;2.10;;
819;SDS011;392;48.838;2.322;2022-10-16T08:59:37;3.10;;;2.80;;
819;SDS011;392;48.838;2.322;2022-10-16T09:02:11;3.50;;;3.20;;
819;SDS011;392;48.838;2.322;2022-10-16T09:04:58;3.40;;;3.10;;
819;SDS011;392;48.838;2.322;2022-10-16T09:07:53;3.47;;;3.17;;
819;SDS011;392;48.838;2.322;2022-10-16T09:10:31;3.60;;;3.40;;
819;SDS011;392;48.838;2.322;2022-10-16T09:13:12;3.83;;;3.60;;
819;SDS011;392;48.838;2.322;2022-10-16T09:15:50;4.23;;;3.93;;
819;SDS011;392;48.838;2.322;2022-10-16T09:18:27;4.43;;;4.13;;
819;SDS011;392;48.838;2.322;2022-10-16T09:21:01;5.20;;;4.80;;
819;SDS011;392;48.838;2.322;2022-10-16T09:23:36;4.23;;;3.93;;
819;SDS011;392;48.838;2.322;2022-10-16T09:26:05;4.90;;;4.50;;
819;SDS011;392;48.838;2.322;2022-10-16T09:28:38;4.13;;;3.93;;
819;SDS011;392;48.838;2.322;2022-10-16T09:31:08;3.77;;;3.50;;
819;SDS011;392;48.838;2.322;2022-10-16T09:33:42;4.30;;;4.00;;
819;SDS011;392;48.838;2.322;2022-10-16T09:36:12;3.73;;;3.40;;
819;SDS011;392;48.838;2.322;2022-10-16T09:38:40;3.70;;;3.50;;
819;SDS011;392;48.838;2.322;2022-10-16T09:41:12;2.97;;;2.73;;
819;SDS011;392;48.838;2.322;2022-10-16T09:43:47;3.80;;;3.60;;
819;SDS011;392;48.838;2.322;2022-10-16T09:46:21;4.77;;;4.27;;
819;SDS011;392;48.838;2.322;2022-10-16T09:48:53;4.80;;;4.40;;
819;SDS011;392;48.838;2.322;2022-10-16T09:51:24;5.60;;;5.20;;
819;SDS011;392;48.838;2.322;2022-10-16T09:53:54;4.23;;;3.93;;
819;SDS011;392;48.838;2.322;2022-10-16T09:56:25;3.13;;;3.00;;
819;SDS011;392;48.838;2.322;2022-10-16T09:58:56;3.70;;;3.50;;
819;SDS011;392;48.838;2.322;2022-10-16T10:01:26;2.93;;;2.83;;
819;SDS011;392;48.838;2.322;2022-10-16T10:04:03;3.30;;;3.10;;
819;SDS011;392;48.838;2.322;2022-10-16T10:06:32;3.10;;;2.77;;
819;SDS011;392;48.838;2.322;2022-10-16T10:09:04;3.70;;;3.50;;
819;SDS011;392;48.838;2.322;2022-10-16T10:11:45;4.10;;;3.80;;
819;SDS011;392;48.838;2.322;2022-10-16T10:14:22;3.57;;;3.37;;
819;SDS011;392;48.838;2.322;2022-10-16T10:17:06;4.17;;;3.97;;
819;SDS011;392;48.838;2.322;2022-10-16T10:19:39;4.30;;;4.00;;
819;SDS011;392;48.838;2.322;2022-10-16T10:31:24;3.83;;;3.07;;
819;SDS011;392;48.838;2.322;2022-10-16T10:33:58;3.13;;;2.93;;
819;SDS011;392;48.838;2.322;2022-10-16T10:36:34;2.80;;;2.70;;
819;SDS011;392;48.838;2.322;2022-10-16T10:39:06;3.00;;;2.80;;
819;SDS011;392;48.838;2.322;2022-10-16T10:41:50;3.07;;;2.87;;
819;SDS011;392;48.838;2.322;2022-10-16T10:44:37;2.70;;;2.57;;
819;SDS011;392;48.838;2.322;2022-10-16T10:47:24;2.40;;;2.30;;
819;SDS011;392;48.838;2.322;2022-10-16T10:50:06;4.27;;;2.83;;
819;SDS011;392;48.838;2.322;2022-10-16T10:52:42;2.83;;;2.70;;
819;SDS011;392;48.838;2.322;2022-10-16T10:55:21;2.53;;;2.43;;
819;SDS011;392;48.838;2.322;2022-10-16T10:58:06;2.20;;;2.10;;
819;SDS011;392;48.838;2.322;2022-10-16T11:01:09;3.30;;;3.10;;
819;SDS011;392;48.838;2.322;2022-10-16T11:03:46;2.20;;;2.07;;
819;SDS011;392;48.838;2.322;2022-10-16T11:06:44;1.60;;;1.60;;
819;SDS011;392;48.838;2.322;2022-10-16T11:09:15;1.77;;;1.67;;
819;SDS011;392;48.838;2.322;2022-10-16T11:11:49;1.93;;;1.83;;
819;SDS011;392;48.838;2.322;2022-10-16T11:14:21;3.30;;;3.00;;
819;SDS011;392;48.838;2.322;2022-10-16T11:16:56;2.00;;;1.90;;
819;SDS011;392;48.838;2.322;2022-10-16T11:19:34;3.50;;;3.10;;
819;SDS011;392;48.838;2.322;2022-10-16T11:22:09;2.17;;;2.07;;
819;SDS011;392;48.838;2.322;2022-10-16T11:24:45;2.37;;;2.27;;
819;SDS011;392;48.838;2.322;2022-10-16T11:27:17;1.97;;;1.87;;
819;SDS011;392;48.838;2.322;2022-10-16T11:29:49;2.20;;;2.10;;
819;SDS011;392;48.838;2.322;2022-10-16T11:32:22;1.50;;;1.50;;
819;SDS011;392;48.838;2.322;2022-10-16T11:34:59;2.50;;;2.40;;
819;SDS011;392;48.838;2.322;2022-10-16T11:37:36;2.13;;;2.03;;
819;SDS011;392;48.838;2.322;2022-10-16T11:40:11;2.00;;;1.90;;
819;SDS011;392;48.838;2.322;2022-10-16T11:42:48;2.50;;;2.40;;
819;SDS011;392;48.838;2.322;2022-10-16T11:45:26;1.80;;;1.70;;
819;SDS011;392;48.838;2.322;2022-10-16T11:48:00;2.03;;;1.93;;
819;SDS011;392;48.838;2.322;2022-10-16T11:50:34;2.00;;;1.90;;
819;SDS011;392;48.838;2.322;2022-10-16T11:53:11;1.80;;;1.70;;
819;SDS011;392;48.838;2.322;2022-10-16T11:55:45;1.90;;;1.80;;
819;SDS011;392;48.838;2.322;2022-10-16T11:58:15;2.07;;;1.80;;
819;SDS011;392;48.838;2.322;2022-10-16T12:00:56;1.80;;;1.80;;
819;SDS011;392;48.838;2.322;2022-10-16T12:03:31;1.93;;;1.83;;
819;SDS011;392;48.838;2.322;2022-10-16T12:06:14;1.93;;;1.83;;
819;SDS011;392;48.838;2.322;2022-10-16T12:08:54;1.70;;;1.60;;
819;SDS011;392;48.838;2.322;2022-10-16T12:11:32;1.80;;;1.70;;
819;SDS011;392;48.838;2.322;2022-10-16T12:14:16;1.70;;;1.63;;
819;SDS011;392;48.838;2.322;2022-10-16T12:17:02;4.47;;;4.10;;
819;SDS011;392;48.838;2.322;2022-10-16T12:19:56;2.10;;;2.00;;
819;SDS011;392;48.838;2.322;2022-10-16T12:22:28;1.70;;;1.70;;
819;SDS011;392;48.838;2.322;2022-10-16T12:24:57;1.97;;;1.87;;
819;SDS011;392;48.838;2.322;2022-10-16T12:27:27;2.27;;;2.17;;
819;SDS011;392;48.838;2.322;2022-10-16T12:29:57;1.70;;;1.60;;
819;SDS011;392;48.838;2.322;2022-10-16T12:32:32;2.03;;;1.93;;
819;SDS011;392;48.838;2.322;2022-10-16T12:35:02;2.10;;;2.00;;
819;SDS011;392;48.838;2.322;2022-10-16T12:37:34;2.40;;;2.00;;
819;SDS011;392;48.838;2.322;2022-10-16T12:40:11;3.10;;;2.90;;
819;SDS011;392;48.838;2.322;2022-10-16T12:42:41;2.27;;;2.17;;
819;SDS011;392;48.838;2.322;2022-10-16T12:45:25;2.43;;;2.23;;
819;SDS011;392;48.838;2.322;2022-10-16T12:47:56;2.50;;;2.40;;
819;SDS011;392;48.838;2.322;2022-10-16T12:50:27;2.40;;;2.30;;
819;SDS011;392;48.838;2.322;2022-10-16T12:53:03;3.03;;;2.70;;
819;SDS011;392;48.838;2.322;2022-10-16T12:55:46;2.87;;;2.67;;
819;SDS011;392;48.838;2.322;2022-10-16T12:58:27;2.70;;;2.60;;
819;SDS011;392;48.838;2.322;2022-10-16T13:01:12;3.47;;;3.27;;
819;SDS011;392;48.838;2.322;2022-10-16T13:04:01;3.13;;;2.93;;
819;SDS011;392;48.838;2.322;2022-10-16T13:06:45;3.23;;;3.10;;
819;SDS011;392;48.838;2.322;2022-10-16T13:09:30;2.90;;;2.73;;
819;SDS011;392;48.838;2.322;2022-10-16T13:12:15;3.17;;;3.07;;
819;SDS011;392;48.838;2.322;2022-10-16T13:18:02;3.80;;;3.60;;
819;SDS011;392;48.838;2.322;2022-10-16T13:20:42;3.40;;;3.20;;
819;SDS011;392;48.838;2.322;2022-10-16T13:23:25;3.17;;;3.03;;
819;SDS011;392;48.838;2.322;2022-10-16T13:26:03;3.03;;;2.93;;
819;SDS011;392;48.838;2.322;2022-10-16T13:28:41;4.10;;;3.80;;
819;SDS011;392;48.838;2.322;2022-10-16T13:31:11;3.60;;;3.40;;
819;SDS011;392;48.838;2.322;2022-10-16T13:33:45;3.97;;;3.70;;
819;SDS011;392;48.838;2.322;2022-10-16T13:36:18;3.50;;;3.30;;
819;SDS011;392;48.838;2.322;2022-10-16T13:38:49;3.23;;;3.13;;
819;SDS011;392;48.838;2.322;2022-10-16T13:41:35;3.50;;;3.30;;
819;SDS011;392;48.838;2.322;2022-10-16T13:44:02;3.60;;;3.40;;
819;SDS011;392;48.838;2.322;2022-10-16T13:46:30;3.90;;;3.70;;
819;SDS011;392;48.838;2.322;2022-10-16T13:49:00;3.70;;;3.40;;
819;SDS011;392;48.838;2.322;2022-10-16T13:51:30;3.43;;;3.23;;
819;SDS011;392;48.838;2.322;2022-10-16T13:53:59;3.60;;;3.40;;
819;SDS011;392;48.838;2.322;2022-10-16T13:56:27;3.60;;;3.40;;
819;SDS011;392;48.838;2.322;2022-10-16T13:59:01;3.50;;;3.30;;
819;SDS011;392;48.838;2.322;2022-10-16T14:01:31;4.07;;;3.87;;
819;SDS011;392;48.838;2.322;2022-10-16T14:04:01;3.10;;;3.00;;
819;SDS011;392;48.838;2.322;2022-10-16T14:06:31;3.60;;;3.40;;
819;SDS011;392;48.838;2.322;2022-10-16T14:09:00;3.60;;;3.40;;
819;SDS011;392;48.838;2.322;2022-10-16T14:11:32;3.43;;;3.13;;
819;SDS011;392;48.838;2.322;2022-10-16T14:14:09;3.60;;;3.40;;
819;SDS011;392;48.838;2.322;2022-10-16T14:16:40;4.40;;;4.10;;
819;SDS011;392;48.838;2.322;2022-10-16T14:19:14;3.70;;;3.50;;
819;SDS011;392;48.838;2.322;2022-10-16T14:21:47;3.20;;;3.10;;
819;SDS011;392;48.838;2.322;2022-10-16T14:24:22;4.53;;;4.10;;
819;SDS011;392;48.838;2.322;2022-10-16T14:26:53;4.10;;;3.90;;
819;SDS011;392;48.838;2.322;2022-10-16T14:29:23;5.07;;;4.77;;
819;SDS011;392;48.838;2.322;2022-10-16T14:31:55;4.00;;;3.70;;
819;SDS011;392;48.838;2.322;2022-10-16T14:34:24;4.00;;;3.80;;
819;SDS011;392;48.838;2.322;2022-10-16T14:36:56;4.17;;;3.97;;
819;SDS011;392;48.838;2.322;2022-10-16T14:39:26;4.20;;;3.90;;
819;SDS011;392;48.838;2.322;2022-10-16T14:41:55;4.10;;;3.90;;
819;SDS011;392;48.838;2.322;2022-10-16T14:44:28;4.23;;;4.03;;
819;SDS011;392;48.838;2.322;2022-10-16T14:47:05;4.87;;;4.43;;
819;SDS011;392;48.838;2.322;2022-10-16T14:49:35;4.40;;;4.07;;
819;SDS011;392;48.838;2.322;2022-10-16T14:52:04;4.50;;;4.20;;
819;SDS011;392;48.838;2.322;2022-10-16T14:54:36;4.87;;;4.57;;
819;SDS011;392;48.838;2.322;2022-10-16T14:57:03;4.47;;;4.20;;
819;SDS011;392;48.838;2.322;2022-10-16T14:59:33;4.80;;;4.50;;
819;SDS011;392;48.838;2.322;2022-10-16T15:02:09;4.80;;;4.40;;
819;SDS011;392;48.838;2.322;2022-10-16T15:04:49;4.47;;;4.10;;
819;SDS011;392;48.838;2.322;2022-10-16T15:07:16;5.20;;;4.73;;
819;SDS011;392;48.838;2.322;2022-10-16T15:09:43;4.87;;;4.60;;
819;SDS011;392;48.838;2.322;2022-10-16T15:12:11;4.30;;;4.10;;
819;SDS011;392;48.838;2.322;2022-10-16T15:14:40;4.73;;;4.43;;
819;SDS011;392;48.838;2.322;2022-10-16T15:17:08;5.80;;;5.40;;
819;SDS011;392;48.838;2.322;2022-10-16T15:19:36;5.87;;;5.57;;
819;SDS011;392;48.838;2.322;2022-10-16T15:22:03;5.00;;;4.63;;
819;SDS011;392;48.838;2.322;2022-10-16T15:24:31;5.17;;;4.67;;
819;SDS011;392;48.838;2.322;2022-10-16T15:26:58;5.27;;;4.87;;
819;SDS011;392;48.838;2.322;2022-10-16T15:29:26;5.00;;;4.70;;
819;SDS011;392;48.838;2.322;2022-10-16T15:31:55;4.30;;;4.10;;
819;SDS011;392;48.838;2.322;2022-10-16T15:34:22;4.60;;;4.30;;
819;SDS011;392;48.838;2.322;2022-10-16T15:36:49;5.40;;;5.00;;
819;SDS011;392;48.838;2.322;2022-10-16T15:39:17;5.00;;;4.60;;
819;SDS011;392;48.838;2.322;2022-10-16T15:41:46;5.70;;;5.30;;
819;SDS011;392;48.838;2.322;2022-10-16T15:44:16;5.60;;;5.03;;
819;SDS011;392;48.838;2.322;2022-10-16T15:46:43;5.00;;;4.70;;
819;SDS011;392;48.838;2.322;2022-10-16T15:49:12;7.93;;;5.13;;
819;SDS011;392;48.838;2.322;2022-10-16T15:51:40;5.33;;;5.00;;
819;SDS011;392;48.838;2.322;2022-10-16T15:54:08;5.07;;;4.77;;
819;SDS011;392;48.838;2.322;2022-10-16T15:56:36;6.13;;;5.67;;
819;SDS011;392;48.838;2.322;2022-10-16T15:59:03;5.30;;;4.90;;
819;SDS011;392;48.838;2.322;2022-10-16T16:01:33;6.00;;;5.50;;
819;SDS011;392;48.838;2.322;2022-10-16T16:04:02;5.50;;;4.97;;
819;SDS011;392;48.838;2.322;2022-10-16T16:06:31;5.20;;;4.80;;
819;SDS011;392;48.838;2.322;2022-10-16T16:08:59;5.20;;;4.80;;
819;SDS011;392;48.838;2.322;2022-10-16T16:11:26;5.13;;;4.83;;
819;SDS011;392;48.838;2.322;2022-10-16T16:13:54;5.20;;;4.90;;
819;SDS011;392;48.838;2.322;2022-10-16T16:16:23;4.93;;;4.63;;
819;SDS011;392;48.838;2.322;2022-10-16T16:18:52;5.33;;;5.03;;
819;SDS011;392;48.838;2.322;2022-10-16T16:21:20;5.90;;;5.40;;
819;SDS011;392;48.838;2.322;2022-10-16T16:23:49;5.60;;;5.20;;